LXP203 SCEL-SCIE
Flight info
| Callsign | LXP203 |
|---|---|
| Flight time | 0h 43m |
| Altitude | 29000 |
| Route | GELUS5B GELUS UQ809 ARUNI ARUNI6C |
| Aircraft | A321/M-SDE3FGHIRWY/LB1 |
Departure
| Time | 2026-04-23 14:48 |
|---|---|
| Airport | Comodoro Arturo Merino Benítez International Airport (SCEL) |
Arrival
| Time | 2026-04-23 15:31 |
|---|---|
| Airport | Carriel Sur International Airport (SCIE) |
| Time | Latitude | Longitude | Altitude | Speed | Heading |
|---|---|---|---|---|---|
| 2026-04-23 14:06 | -33.39566 | -70.79017 | 1565 ft | 0 kts | 184° |
| 2026-04-23 14:30 | -33.39551 | -70.79016 | 1564 ft | 3 kts | 183° |
| 2026-04-23 14:31 | -33.39531 | -70.79015 | 1564 ft | 2 kts | 182° |
| 2026-04-23 14:31 | -33.39510 | -70.79011 | 1564 ft | 3 kts | 206° |
| 2026-04-23 14:31 | -33.39495 | -70.78997 | 1564 ft | 3 kts | 254° |
| 2026-04-23 14:31 | -33.39493 | -70.78973 | 1564 ft | 3 kts | 268° |
| 2026-04-23 14:32 | -33.39492 | -70.78948 | 1564 ft | 1 kts | 268° |
| 2026-04-23 14:32 | -33.39492 | -70.78947 | 1564 ft | 0 kts | 268° |
| 2026-04-23 14:38 | -33.39492 | -70.78957 | 1564 ft | 3 kts | 268° |
| 2026-04-23 14:38 | -33.39494 | -70.78998 | 1564 ft | 7 kts | 267° |
| 2026-04-23 14:38 | -33.39496 | -70.79076 | 1564 ft | 11 kts | 271° |
| 2026-04-23 14:39 | -33.39456 | -70.79134 | 1564 ft | 10 kts | 343° |
| 2026-04-23 14:39 | -33.39386 | -70.79142 | 1564 ft | 11 kts | 356° |
| 2026-04-23 14:39 | -33.39321 | -70.79163 | 1564 ft | 9 kts | 301° |
| 2026-04-23 14:39 | -33.39317 | -70.79240 | 1564 ft | 9 kts | 268° |
| 2026-04-23 14:40 | -33.39320 | -70.79315 | 1564 ft | 9 kts | 267° |
| 2026-04-23 14:40 | -33.39323 | -70.79391 | 1564 ft | 9 kts | 267° |
| 2026-04-23 14:40 | -33.39326 | -70.79466 | 1564 ft | 9 kts | 267° |
| 2026-04-23 14:40 | -33.39329 | -70.79542 | 1565 ft | 9 kts | 267° |
| 2026-04-23 14:41 | -33.39333 | -70.79616 | 1564 ft | 9 kts | 267° |
| 2026-04-23 14:41 | -33.39336 | -70.79690 | 1565 ft | 9 kts | 267° |
| 2026-04-23 14:41 | -33.39339 | -70.79777 | 1565 ft | 13 kts | 267° |
| 2026-04-23 14:41 | -33.39344 | -70.79927 | 1565 ft | 24 kts | 271° |
| 2026-04-23 14:42 | -33.39208 | -70.80063 | 1566 ft | 34 kts | 358° |
| 2026-04-23 14:42 | -33.38936 | -70.80073 | 1567 ft | 44 kts | 358° |
| 2026-04-23 14:42 | -33.38605 | -70.80093 | 1567 ft | 50 kts | 355° |
| 2026-04-23 14:42 | -33.38267 | -70.80113 | 1566 ft | 46 kts | 357° |
| 2026-04-23 14:43 | -33.37960 | -70.80129 | 1566 ft | 42 kts | 357° |
| 2026-04-23 14:43 | -33.37686 | -70.80144 | 1567 ft | 37 kts | 356° |
| 2026-04-23 14:43 | -33.37443 | -70.80156 | 1567 ft | 33 kts | 358° |
| 2026-04-23 14:43 | -33.37230 | -70.80167 | 1567 ft | 29 kts | 358° |
| 2026-04-23 14:44 | -33.37111 | -70.80230 | 1568 ft | 10 kts | 298° |
| 2026-04-23 14:44 | -33.37110 | -70.80234 | 1569 ft | 0 kts | 298° |
| 2026-04-23 14:46 | -33.37106 | -70.80245 | 1569 ft | 4 kts | 291° |
| 2026-04-23 14:47 | -33.37106 | -70.80303 | 1573 ft | 10 kts | 259° |
| 2026-04-23 14:47 | -33.37149 | -70.80372 | 1574 ft | 10 kts | 212° |
| 2026-04-23 14:47 | -33.37228 | -70.80377 | 1573 ft | 17 kts | 175° |
| 2026-04-23 14:47 | -33.37516 | -70.80358 | 1574 ft | 75 kts | 177° |
| 2026-04-23 14:48 | -33.37957 | -70.80331 | 1573 ft | 115 kts | 177° |
| 2026-04-23 14:48 | -33.38930 | -70.80281 | 1574 ft | 163 kts | 177° |
| 2026-04-23 14:48 | -33.40114 | -70.80220 | 2008 ft | 171 kts | 178° |
| 2026-04-23 14:48 | -33.41371 | -70.80152 | 2346 ft | 192 kts | 177° |
| 2026-04-23 14:49 | -33.42765 | -70.80074 | 2671 ft | 208 kts | 177° |
| 2026-04-23 14:49 | -33.44286 | -70.79988 | 2956 ft | 231 kts | 177° |
| 2026-04-23 14:49 | -33.45959 | -70.79895 | 3414 ft | 250 kts | 177° |
| 2026-04-23 14:49 | -33.47751 | -70.79791 | 3994 ft | 263 kts | 177° |
| 2026-04-23 14:50 | -33.50131 | -70.80367 | 4998 ft | 271 kts | 210° |
| 2026-04-23 14:50 | -33.51146 | -70.81292 | 5501 ft | 274 kts | 227° |
| 2026-04-23 14:50 | -33.52145 | -70.83230 | 6250 ft | 277 kts | 251° |
| 2026-04-23 14:50 | -33.52846 | -70.85398 | 7006 ft | 282 kts | 240° |
| 2026-04-23 14:51 | -33.54241 | -70.87070 | 7727 ft | 289 kts | 215° |
| 2026-04-23 14:51 | -33.55984 | -70.88302 | 8495 ft | 293 kts | 209° |
| 2026-04-23 14:51 | -33.57802 | -70.89420 | 9312 ft | 295 kts | 208° |
| 2026-04-23 14:51 | -33.59603 | -70.90617 | 10059 ft | 298 kts | 214° |
| 2026-04-23 14:52 | -33.61383 | -70.92043 | 10378 ft | 318 kts | 217° |
| 2026-04-23 14:52 | -33.63224 | -70.93656 | 10634 ft | 336 kts | 219° |
| 2026-04-23 14:52 | -33.65100 | -70.95389 | 11208 ft | 343 kts | 219° |
| 2026-04-23 14:52 | -33.66963 | -70.97149 | 11911 ft | 346 kts | 220° |
| 2026-04-23 14:53 | -33.68856 | -70.98952 | 12645 ft | 349 kts | 220° |
| 2026-04-23 14:53 | -33.70768 | -71.00774 | 13374 ft | 352 kts | 220° |
| 2026-04-23 14:53 | -33.72697 | -71.02604 | 14090 ft | 355 kts | 220° |
| 2026-04-23 14:53 | -33.74642 | -71.04441 | 14743 ft | 357 kts | 220° |
| 2026-04-23 14:54 | -33.76603 | -71.06286 | 15425 ft | 359 kts | 220° |
| 2026-04-23 14:54 | -33.78573 | -71.08134 | 16105 ft | 360 kts | 220° |
| 2026-04-23 14:54 | -33.80566 | -71.10002 | 16778 ft | 362 kts | 220° |
| 2026-04-23 14:54 | -33.82558 | -71.11870 | 17456 ft | 364 kts | 220° |
| 2026-04-23 14:55 | -33.84556 | -71.13749 | 18114 ft | 366 kts | 220° |
| 2026-04-23 14:55 | -33.86567 | -71.15646 | 18731 ft | 368 kts | 220° |
| 2026-04-23 14:55 | -33.88564 | -71.17534 | 19284 ft | 371 kts | 221° |
| 2026-04-23 14:55 | -33.90601 | -71.19456 | 19852 ft | 373 kts | 220° |
| 2026-04-23 14:56 | -33.92812 | -71.21129 | 20396 ft | 379 kts | 210° |
| 2026-04-23 14:56 | -33.95173 | -71.22571 | 20909 ft | 382 kts | 210° |
| 2026-04-23 14:56 | -33.97550 | -71.24019 | 21446 ft | 384 kts | 210° |
| 2026-04-23 14:56 | -33.99941 | -71.25475 | 21974 ft | 386 kts | 211° |
| 2026-04-23 14:57 | -34.02346 | -71.26944 | 22494 ft | 389 kts | 211° |
| 2026-04-23 14:57 | -34.04765 | -71.28427 | 22994 ft | 391 kts | 211° |
| 2026-04-23 14:57 | -34.07197 | -71.29921 | 23495 ft | 394 kts | 211° |
| 2026-04-23 14:57 | -34.09647 | -71.31427 | 23950 ft | 396 kts | 211° |
| 2026-04-23 14:58 | -34.12111 | -71.32942 | 24367 ft | 399 kts | 211° |
| 2026-04-23 14:58 | -34.14593 | -71.34468 | 24759 ft | 401 kts | 211° |
| 2026-04-23 14:58 | -34.17082 | -71.35999 | 25151 ft | 403 kts | 211° |
| 2026-04-23 14:58 | -34.19588 | -71.37542 | 25547 ft | 405 kts | 211° |
| 2026-04-23 14:59 | -34.22105 | -71.39091 | 25947 ft | 407 kts | 211° |
| 2026-04-23 14:59 | -34.24640 | -71.40653 | 26351 ft | 409 kts | 211° |
| 2026-04-23 14:59 | -34.27173 | -71.42217 | 26745 ft | 411 kts | 211° |
| 2026-04-23 14:59 | -34.29731 | -71.43798 | 27126 ft | 414 kts | 211° |
| 2026-04-23 15:00 | -34.32299 | -71.45386 | 27534 ft | 416 kts | 211° |
| 2026-04-23 15:00 | -34.34880 | -71.46983 | 27899 ft | 418 kts | 211° |
| 2026-04-23 15:00 | -34.37439 | -71.48567 | 28254 ft | 420 kts | 211° |
| 2026-04-23 15:00 | -34.40049 | -71.50182 | 28618 ft | 422 kts | 211° |
| 2026-04-23 15:01 | -34.42671 | -71.51804 | 28979 ft | 424 kts | 211° |
| 2026-04-23 15:01 | -34.45316 | -71.53443 | 29178 ft | 427 kts | 211° |
| 2026-04-23 15:01 | -34.50492 | -71.56639 | 29217 ft | 413 kts | 211° |
| 2026-04-23 15:02 | -34.55593 | -71.59807 | 29217 ft | 411 kts | 212° |
| 2026-04-23 15:02 | -34.60677 | -71.62978 | 29215 ft | 411 kts | 211° |
| 2026-04-23 15:03 | -34.65761 | -71.66149 | 29228 ft | 411 kts | 211° |
| 2026-04-23 15:03 | -34.70815 | -71.69301 | 29214 ft | 410 kts | 211° |
| 2026-04-23 15:04 | -34.75897 | -71.72471 | 29234 ft | 410 kts | 211° |
| 2026-04-23 15:04 | -34.80973 | -71.75646 | 29231 ft | 410 kts | 212° |
| 2026-04-23 15:05 | -34.86051 | -71.78833 | 29219 ft | 410 kts | 212° |
| 2026-04-23 15:05 | -34.91122 | -71.82016 | 29235 ft | 410 kts | 211° |
| 2026-04-23 15:06 | -34.96192 | -71.85197 | 29234 ft | 410 kts | 211° |
| 2026-04-23 15:06 | -35.01237 | -71.88366 | 29231 ft | 410 kts | 211° |
| 2026-04-23 15:07 | -35.06306 | -71.91563 | 29223 ft | 410 kts | 211° |
| 2026-04-23 15:07 | -35.11372 | -71.94755 | 29234 ft | 410 kts | 211° |
| 2026-04-23 15:08 | -35.16443 | -71.97954 | 29227 ft | 410 kts | 211° |
| 2026-04-23 15:09 | -35.24008 | -72.02754 | 29231 ft | 409 kts | 211° |
| 2026-04-23 15:09 | -35.29070 | -72.05956 | 29229 ft | 409 kts | 211° |
| 2026-04-23 15:10 | -35.33309 | -72.08647 | 29083 ft | 408 kts | 211° |
| 2026-04-23 15:10 | -35.36623 | -72.10750 | 28726 ft | 401 kts | 211° |
| 2026-04-23 15:10 | -35.39084 | -72.12315 | 28281 ft | 396 kts | 211° |
| 2026-04-23 15:10 | -35.41522 | -72.13869 | 27803 ft | 392 kts | 211° |
| 2026-04-23 15:11 | -35.43928 | -72.15404 | 27335 ft | 388 kts | 211° |
| 2026-04-23 15:11 | -35.46313 | -72.16925 | 26872 ft | 384 kts | 211° |
| 2026-04-23 15:11 | -35.48669 | -72.18428 | 26423 ft | 380 kts | 210° |
| 2026-04-23 15:11 | -35.51001 | -72.19915 | 25994 ft | 375 kts | 210° |
| 2026-04-23 15:12 | -35.53277 | -72.21366 | 25562 ft | 371 kts | 210° |
| 2026-04-23 15:12 | -35.55559 | -72.22823 | 25155 ft | 367 kts | 210° |
| 2026-04-23 15:12 | -35.57820 | -72.24270 | 24749 ft | 364 kts | 210° |
| 2026-04-23 15:12 | -35.60058 | -72.25702 | 24325 ft | 361 kts | 210° |
| 2026-04-23 15:13 | -35.62278 | -72.27123 | 23922 ft | 358 kts | 210° |
| 2026-04-23 15:13 | -35.64486 | -72.28536 | 23462 ft | 356 kts | 210° |
| 2026-04-23 15:13 | -35.66668 | -72.29937 | 23059 ft | 351 kts | 210° |
| 2026-04-23 15:13 | -35.68824 | -72.31324 | 22634 ft | 348 kts | 210° |
| 2026-04-23 15:14 | -35.70934 | -72.32683 | 22223 ft | 344 kts | 210° |
| 2026-04-23 15:14 | -35.73047 | -72.34042 | 21814 ft | 340 kts | 210° |
| 2026-04-23 15:14 | -35.75138 | -72.35386 | 21405 ft | 337 kts | 210° |
| 2026-04-23 15:14 | -35.77216 | -72.36722 | 20993 ft | 335 kts | 210° |
| 2026-04-23 15:15 | -35.79267 | -72.38041 | 20590 ft | 331 kts | 210° |
| 2026-04-23 15:15 | -35.81301 | -72.39348 | 20186 ft | 328 kts | 210° |
| 2026-04-23 15:15 | -35.83321 | -72.40650 | 19785 ft | 326 kts | 210° |
| 2026-04-23 15:15 | -35.85325 | -72.41945 | 19376 ft | 324 kts | 210° |
| 2026-04-23 15:16 | -35.87323 | -72.43236 | 18953 ft | 324 kts | 210° |
| 2026-04-23 15:16 | -35.89309 | -72.44541 | 18536 ft | 322 kts | 211° |
| 2026-04-23 15:16 | -35.91245 | -72.45929 | 18087 ft | 320 kts | 213° |
| 2026-04-23 15:16 | -35.93139 | -72.47358 | 17680 ft | 318 kts | 213° |
| 2026-04-23 15:17 | -35.95016 | -72.48796 | 17281 ft | 316 kts | 214° |
| 2026-04-23 15:17 | -35.96853 | -72.50205 | 16889 ft | 314 kts | 214° |
| 2026-04-23 15:17 | -35.98709 | -72.51619 | 16497 ft | 312 kts | 214° |
| 2026-04-23 15:17 | -36.00561 | -72.53018 | 16107 ft | 311 kts | 213° |
| 2026-04-23 15:18 | -36.02406 | -72.54407 | 15722 ft | 310 kts | 213° |
| 2026-04-23 15:18 | -36.04241 | -72.55789 | 15339 ft | 308 kts | 213° |
| 2026-04-23 15:18 | -36.06070 | -72.57164 | 14952 ft | 307 kts | 213° |
| 2026-04-23 15:18 | -36.07893 | -72.58533 | 14570 ft | 306 kts | 213° |
| 2026-04-23 15:19 | -36.09706 | -72.59894 | 14178 ft | 304 kts | 212° |
| 2026-04-23 15:19 | -36.11512 | -72.61250 | 13767 ft | 303 kts | 212° |
| 2026-04-23 15:19 | -36.13311 | -72.62602 | 13373 ft | 302 kts | 213° |
| 2026-04-23 15:19 | -36.15078 | -72.63933 | 12987 ft | 300 kts | 212° |
| 2026-04-23 15:20 | -36.16279 | -72.64838 | 12728 ft | 298 kts | 212° |
| 2026-04-23 15:20 | -36.18623 | -72.66606 | 12214 ft | 296 kts | 212° |
| 2026-04-23 15:20 | -36.20376 | -72.67931 | 11843 ft | 295 kts | 212° |
| 2026-04-23 15:20 | -36.22127 | -72.69252 | 11447 ft | 294 kts | 213° |
| 2026-04-23 15:21 | -36.23878 | -72.70574 | 11053 ft | 294 kts | 213° |
| 2026-04-23 15:21 | -36.25621 | -72.71892 | 10599 ft | 294 kts | 212° |
| 2026-04-23 15:21 | -36.27380 | -72.73224 | 10208 ft | 293 kts | 213° |
| 2026-04-23 15:21 | -36.29099 | -72.74522 | 10005 ft | 285 kts | 212° |
| 2026-04-23 15:22 | -36.30779 | -72.75791 | 9771 ft | 279 kts | 213° |
| 2026-04-23 15:22 | -36.32418 | -72.77031 | 9537 ft | 278 kts | 213° |
| 2026-04-23 15:22 | -36.34062 | -72.78278 | 9186 ft | 277 kts | 212° |
| 2026-04-23 15:22 | -36.35712 | -72.79532 | 8828 ft | 277 kts | 212° |
| 2026-04-23 15:23 | -36.37351 | -72.80777 | 8464 ft | 276 kts | 213° |
| 2026-04-23 15:23 | -36.38983 | -72.82018 | 8105 ft | 275 kts | 212° |
| 2026-04-23 15:23 | -36.40614 | -72.83243 | 7742 ft | 271 kts | 212° |
| 2026-04-23 15:23 | -36.42229 | -72.84449 | 7382 ft | 272 kts | 211° |
| 2026-04-23 15:24 | -36.43860 | -72.85663 | 7030 ft | 273 kts | 211° |
| 2026-04-23 15:24 | -36.45483 | -72.86874 | 6665 ft | 272 kts | 211° |
| 2026-04-23 15:24 | -36.47095 | -72.88079 | 6291 ft | 269 kts | 211° |
| 2026-04-23 15:24 | -36.48662 | -72.89249 | 5937 ft | 256 kts | 211° |
| 2026-04-23 15:25 | -36.50135 | -72.90350 | 5615 ft | 245 kts | 211° |
| 2026-04-23 15:25 | -36.51569 | -72.91391 | 5322 ft | 232 kts | 206° |
| 2026-04-23 15:25 | -36.52999 | -72.92214 | 4993 ft | 220 kts | 205° |
| 2026-04-23 15:25 | -36.54369 | -72.93009 | 4696 ft | 215 kts | 205° |
| 2026-04-23 15:26 | -36.55713 | -72.93790 | 4416 ft | 211 kts | 205° |
| 2026-04-23 15:26 | -36.57033 | -72.94558 | 4139 ft | 208 kts | 205° |
| 2026-04-23 15:26 | -36.58333 | -72.95315 | 3868 ft | 205 kts | 204° |
| 2026-04-23 15:26 | -36.59625 | -72.96066 | 3599 ft | 205 kts | 204° |
| 2026-04-23 15:27 | -36.60910 | -72.96813 | 3326 ft | 202 kts | 205° |
| 2026-04-23 15:27 | -36.62156 | -72.97538 | 3071 ft | 191 kts | 205° |
| 2026-04-23 15:27 | -36.63327 | -72.98219 | 2808 ft | 180 kts | 205° |
| 2026-04-23 15:27 | -36.64433 | -72.98862 | 2565 ft | 171 kts | 204° |
| 2026-04-23 15:28 | -36.65486 | -72.99473 | 2361 ft | 164 kts | 205° |
| 2026-04-23 15:28 | -36.66499 | -73.00060 | 2133 ft | 157 kts | 205° |
| 2026-04-23 15:28 | -36.67472 | -73.00621 | 1922 ft | 150 kts | 204° |
| 2026-04-23 15:28 | -36.68396 | -73.01155 | 1759 ft | 142 kts | 204° |
| 2026-04-23 15:29 | -36.69269 | -73.01663 | 1544 ft | 136 kts | 204° |
| 2026-04-23 15:29 | -36.70116 | -73.02155 | 1367 ft | 133 kts | 204° |
| 2026-04-23 15:29 | -36.70946 | -73.02636 | 1182 ft | 133 kts | 204° |
| 2026-04-23 15:29 | -36.71784 | -73.03122 | 1001 ft | 133 kts | 205° |
| 2026-04-23 15:30 | -36.72622 | -73.03609 | 810 ft | 133 kts | 205° |
| 2026-04-23 15:30 | -36.73479 | -73.04113 | 615 ft | 136 kts | 206° |
| 2026-04-23 15:30 | -36.74327 | -73.04621 | 458 ft | 135 kts | 205° |
| 2026-04-23 15:30 | -36.75180 | -73.05115 | 272 ft | 135 kts | 205° |
| 2026-04-23 15:31 | -36.76036 | -73.05609 | 110 ft | 135 kts | 205° |
| 2026-04-23 15:31 | -36.76839 | -73.06077 | 60 ft | 113 kts | 206° |
| 2026-04-23 15:31 | -36.77378 | -73.06390 | 65 ft | 59 kts | 205° |
| 2026-04-23 15:31 | -36.77672 | -73.06560 | 67 ft | 42 kts | 205° |
| 2026-04-23 15:32 | -36.77861 | -73.06670 | 66 ft | 16 kts | 205° |
| 2026-04-23 15:32 | -36.77931 | -73.06693 | 66 ft | 10 kts | 172° |
| 2026-04-23 15:32 | -36.77977 | -73.06637 | 61 ft | 11 kts | 116° |
| 2026-04-23 15:32 | -36.78007 | -73.06557 | 60 ft | 10 kts | 114° |
| 2026-04-23 15:33 | -36.77983 | -73.06497 | 61 ft | 8 kts | 31° |
| 2026-04-23 15:33 | -36.77933 | -73.06467 | 52 ft | 7 kts | 25° |
| 2026-04-23 15:33 | -36.77905 | -73.06450 | 57 ft | 7 kts | 26° |
| 2026-04-23 15:33 | -36.77828 | -73.06405 | 57 ft | 9 kts | 23° |
| 2026-04-23 15:34 | -36.77773 | -73.06373 | 55 ft | 11 kts | 26° |
| 2026-04-23 15:34 | -36.77690 | -73.06322 | 61 ft | 14 kts | 24° |
| 2026-04-23 15:34 | -36.77610 | -73.06278 | 59 ft | 11 kts | 25° |
| 2026-04-23 15:34 | -36.77551 | -73.06243 | 56 ft | 8 kts | 25° |
| 2026-04-23 15:35 | -36.77520 | -73.06216 | 58 ft | 8 kts | 47° |
| 2026-04-23 15:35 | -36.77513 | -73.06142 | 53 ft | 10 kts | 106° |
| 2026-04-23 15:35 | -36.77539 | -73.06066 | 56 ft | 9 kts | 127° |
| 2026-04-23 15:35 | -36.77584 | -73.06038 | 56 ft | 6 kts | 169° |
| 2026-04-23 15:36 | -36.77603 | -73.06033 | 57 ft | 0 kts | 169° |